Time;durP1;ratioP1;P1;durP2;ratioP2;P2;SDS_P1;SDS_P2;PMS_P1;PMS_P2;Temp;Humidity;BMP_temperature;BMP_pressure;BME280_temperature;BME280_humidity;BME280_pressure;Samples;Min_cycle;Max_cycle;Signal;HPM_P1;HPM_P2
2021/12/28 00:00:58;;;;;;;2.97;2.27;;;16.90;57.40;;;;;;10447296;28;20226;-71
2021/12/28 00:06:21;;;;;;;2.80;2.33;;;16.90;57.40;;;;;;10446320;28;20200;-71
2021/12/28 00:11:44;;;;;;;2.73;2.23;;;16.80;57.30;;;;;;10448262;28;20220;-71
2021/12/28 00:22:47;;;;;;;2.57;2.20;;;16.80;57.40;;;;;;10439987;28;20271;-71
2021/12/28 00:28:12;;;;;;;2.77;2.27;;;16.80;57.40;;;;;;10428367;28;20209;-71
2021/12/28 00:33:35;;;;;;;2.67;2.33;;;16.80;57.40;;;;;;10428605;28;20706;-71
2021/12/28 00:39:00;;;;;;;3.10;2.33;;;16.80;57.40;;;;;;10428223;28;20635;-71
2021/12/28 00:44:22;;;;;;;3.50;2.60;;;16.90;57.50;;;;;;10426953;28;20996;-71
2021/12/28 00:49:45;;;;;;;3.30;2.40;;;16.90;57.50;;;;;;10426513;28;20197;-71
2021/12/28 00:55:08;;;;;;;3.43;2.40;;;16.80;57.40;;;;;;10424424;28;20572;-72
2021/12/28 01:00:33;;;;;;;3.07;2.47;;;16.80;57.50;;;;;;10421016;28;20932;-71
2021/12/28 01:05:56;;;;;;;2.37;2.13;;;16.80;57.50;;;;;;10427066;28;20201;-70
2021/12/28 01:11:19;;;;;;;2.57;2.00;;;16.90;57.50;;;;;;10427925;28;20216;-71
2021/12/28 01:16:41;;;;;;;2.30;2.00;;;16.80;57.50;;;;;;10441179;28;20203;-71
2021/12/28 01:22:05;;;;;;;2.53;2.20;;;16.80;57.50;;;;;;10431032;28;20225;-71
2021/12/28 01:27:28;;;;;;;2.50;2.07;;;16.90;57.50;;;;;;10437963;28;20208;-71
2021/12/28 01:32:51;;;;;;;2.73;2.00;;;16.90;57.50;;;;;;10446330;28;20208;-71
2021/12/28 01:38:14;;;;;;;2.37;2.10;;;16.80;57.50;;;;;;10447830;28;20576;-71
2021/12/28 01:43:38;;;;;;;2.20;2.00;;;16.80;57.50;;;;;;10450757;28;20217;-71
2021/12/28 01:49:01;;;;;;;2.33;1.73;;;16.90;57.50;;;;;;10453146;28;20197;-71
2021/12/28 01:54:25;;;;;;;2.67;2.03;;;16.80;57.50;;;;;;10451784;28;20709;-71
2021/12/28 01:59:51;;;;;;;2.67;2.30;;;16.80;57.50;;;;;;10439653;28;20217;-71
2021/12/28 02:05:13;;;;;;;2.63;2.20;;;16.80;57.50;;;;;;10452869;28;20220;-71
2021/12/28 02:10:40;;;;;;;2.23;2.03;;;16.80;57.50;;;;;;10454251;28;20193;-71
2021/12/28 02:16:02;;;;;;;2.73;1.93;;;16.80;57.60;;;;;;10454051;28;20235;-71
2021/12/28 02:21:26;;;;;;;3.03;2.30;;;16.80;57.60;;;;;;10453186;28;20229;-71
2021/12/28 02:26:50;;;;;;;2.00;1.80;;;16.80;57.50;;;;;;10451386;28;20295;-71
2021/12/28 02:32:12;;;;;;;2.77;2.17;;;16.80;57.60;;;;;;10453259;28;20217;-71
2021/12/28 02:37:35;;;;;;;2.50;2.07;;;16.80;57.60;;;;;;10451054;28;20603;-71
2021/12/28 02:43:00;;;;;;;3.07;2.10;;;16.80;57.50;;;;;;10452408;28;20213;-71
2021/12/28 02:48:23;;;;;;;2.27;1.83;;;16.80;57.50;;;;;;10452707;28;20603;-71
2021/12/28 02:53:47;;;;;;;2.17;1.90;;;16.80;57.60;;;;;;10452397;28;20263;-71
2021/12/28 02:59:09;;;;;;;2.50;1.87;;;16.80;57.60;;;;;;10439041;28;20193;-71
2021/12/28 03:04:31;;;;;;;2.60;2.10;;;16.80;57.60;;;;;;10451206;28;20723;-71
2021/12/28 03:09:55;;;;;;;2.40;2.20;;;16.80;57.60;;;;;;10450356;28;20675;-71
2021/12/28 03:15:17;;;;;;;2.30;2.00;;;16.90;57.70;;;;;;10450930;28;20213;-71
2021/12/28 03:20:40;;;;;;;1.93;1.73;;;16.80;57.60;;;;;;10450875;28;20197;-71
2021/12/28 03:26:05;;;;;;;3.17;2.10;;;16.80;57.60;;;;;;10450921;28;20584;-71
2021/12/28 03:31:27;;;;;;;2.33;1.90;;;16.80;57.60;;;;;;10450096;28;20217;-71
2021/12/28 03:36:49;;;;;;;2.17;1.93;;;16.80;57.70;;;;;;10449380;28;20212;-71
2021/12/28 03:42:12;;;;;;;2.90;2.10;;;16.80;57.70;;;;;;10450357;28;20221;-72
2021/12/28 03:47:35;;;;;;;2.77;1.87;;;16.80;58.20;;;;;;10449885;28;20200;-71
2021/12/28 03:52:57;;;;;;;2.97;2.23;;;16.80;57.70;;;;;;10449623;28;20224;-71
2021/12/28 03:58:20;;;;;;;2.33;1.90;;;16.80;57.70;;;;;;10449896;28;20189;-71
2021/12/28 04:03:43;;;;;;;2.53;1.90;;;16.80;57.70;;;;;;10448650;28;20239;-71
2021/12/28 04:09:07;;;;;;;2.80;1.90;;;16.80;57.70;;;;;;10447870;28;20203;-71
2021/12/28 04:14:30;;;;;;;2.87;1.90;;;16.80;57.70;;;;;;10434344;28;20687;-71
2021/12/28 04:19:52;;;;;;;2.40;2.13;;;16.80;57.70;;;;;;10447916;28;20197;-71
2021/12/28 04:25:16;;;;;;;4.47;2.07;;;16.80;57.70;;;;;;10447764;28;20231;-71
2021/12/28 04:30:40;;;;;;;2.47;1.90;;;16.80;57.70;;;;;;10447908;28;20720;-71
2021/12/28 04:36:02;;;;;;;2.67;1.77;;;16.80;57.70;;;;;;10448772;28;20189;-71
2021/12/28 04:41:24;;;;;;;2.70;2.00;;;16.80;57.70;;;;;;10448247;28;20225;-71
2021/12/28 04:46:47;;;;;;;2.27;1.80;;;16.80;57.70;;;;;;10446990;28;20201;-71
2021/12/28 04:52:09;;;;;;;2.00;1.80;;;16.80;57.70;;;;;;10447050;28;20643;-71
2021/12/28 04:57:31;;;;;;;2.30;1.83;;;16.80;57.70;;;;;;10447716;28;20718;-71
2021/12/28 05:02:56;;;;;;;3.33;1.90;;;16.90;57.80;;;;;;10447496;28;20213;-71
2021/12/28 05:08:20;;;;;;;2.73;2.03;;;16.90;57.70;;;;;;10447457;28;20200;-71
2021/12/28 05:13:42;;;;;;;2.60;2.00;;;16.90;57.70;;;;;;10445778;28;20205;-71
2021/12/28 05:19:07;;;;;;;2.40;2.10;;;16.90;57.70;;;;;;10452943;28;20812;-71
2021/12/28 05:24:29;;;;;;;1.97;1.77;;;16.90;57.80;;;;;;10456271;28;20220;-71
2021/12/28 05:29:51;;;;;;;2.13;1.80;;;16.90;57.80;;;;;;10454077;28;20208;-71
2021/12/28 05:35:15;;;;;;;2.37;1.80;;;16.90;57.80;;;;;;10455052;28;20231;-71
2021/12/28 05:40:37;;;;;;;1.83;1.60;;;16.90;57.80;;;;;;10454629;28;20722;-71
2021/12/28 05:45:59;;;;;;;2.10;1.70;;;16.90;57.70;;;;;;10454777;28;20215;-71
2021/12/28 05:51:23;;;;;;;2.40;1.63;;;16.90;57.70;;;;;;10454522;28;20220;-71
2021/12/28 05:56:45;;;;;;;2.10;1.80;;;16.90;57.80;;;;;;10454356;28;20234;-71
2021/12/28 06:02:08;;;;;;;2.33;1.83;;;16.90;57.70;;;;;;10454289;28;20731;-71
2021/12/28 06:07:32;;;;;;;2.97;1.97;;;16.90;57.80;;;;;;10453328;28;20197;-71
2021/12/28 06:12:54;;;;;;;1.90;1.70;;;16.90;57.80;;;;;;10453105;28;20220;-71
2021/12/28 06:18:16;;;;;;;2.47;1.83;;;16.90;57.80;;;;;;10451524;28;20193;-71
2021/12/28 06:23:40;;;;;;;2.13;1.90;;;16.90;57.80;;;;;;10452847;28;20227;-71
2021/12/28 06:29:05;;;;;;;2.20;1.90;;;16.90;57.80;;;;;;10451690;28;20209;-71
2021/12/28 06:34:27;;;;;;;2.33;1.90;;;16.90;57.80;;;;;;10452626;28;20209;-71
2021/12/28 06:39:51;;;;;;;2.03;1.77;;;16.90;57.90;;;;;;10452121;28;20200;-71
2021/12/28 06:45:14;;;;;;;2.27;1.90;;;16.90;57.90;;;;;;10453001;28;20779;-71
2021/12/28 06:50:38;;;;;;;1.93;1.73;;;16.90;57.80;;;;;;10451951;28;20205;-71
2021/12/28 06:56:03;;;;;;;2.10;1.73;;;16.90;57.90;;;;;;10448088;28;20276;-71
2021/12/28 07:01:25;;;;;;;2.17;1.77;;;17.00;57.90;;;;;;10451860;28;20277;-71
2021/12/28 07:06:47;;;;;;;2.00;1.80;;;16.90;57.90;;;;;;10452444;28;20194;-71
2021/12/28 07:12:11;;;;;;;2.40;1.97;;;16.90;58.50;;;;;;10450835;28;20305;-71
2021/12/28 07:17:33;;;;;;;2.10;1.73;;;17.00;58.00;;;;;;10450012;28;20205;-71
2021/12/28 07:22:56;;;;;;;1.83;1.60;;;16.90;57.90;;;;;;10451601;28;20229;-71
2021/12/28 07:28:19;;;;;;;2.10;1.90;;;16.90;58.00;;;;;;10450831;28;20204;-71
2021/12/28 07:33:41;;;;;;;3.77;1.97;;;16.90;58.00;;;;;;10452375;28;20209;-71
2021/12/28 07:39:04;;;;;;;2.50;2.00;;;16.90;58.00;;;;;;10445262;28;20240;-71
2021/12/28 07:44:28;;;;;;;2.10;1.90;;;16.90;57.90;;;;;;10435566;28;20231;-71
2021/12/28 07:49:50;;;;;;;2.37;2.00;;;16.90;57.90;;;;;;10438022;28;20203;-70
2021/12/28 07:55:14;;;;;;;1.97;1.70;;;16.90;57.90;;;;;;10445557;28;20224;-71
2021/12/28 08:00:37;;;;;;;2.80;1.97;;;16.90;58.10;;;;;;10440259;28;20676;-71
2021/12/28 08:05:59;;;;;;;1.70;1.60;;;16.90;58.10;;;;;;10451064;28;20259;-72
2021/12/28 08:11:22;;;;;;;2.30;2.07;;;16.90;58.30;;;;;;10442268;28;20228;-71
2021/12/28 08:16:48;;;;;;;1.97;1.77;;;16.90;58.30;;;;;;10436804;28;20220;-71
2021/12/28 08:22:10;;;;;;;1.90;1.70;;;16.90;58.30;;;;;;10449894;28;20232;-71
2021/12/28 08:27:32;;;;;;;2.37;1.93;;;16.90;58.40;;;;;;10435135;28;20205;-71
2021/12/28 08:32:56;;;;;;;1.70;1.60;;;16.90;58.50;;;;;;10437099;28;20217;-71
2021/12/28 08:38:18;;;;;;;1.57;1.47;;;16.90;59.10;;;;;;10440709;28;20291;-71
2021/12/28 08:43:40;;;;;;;2.07;1.70;;;16.90;58.50;;;;;;10434659;28;20229;-72
2021/12/28 08:49:04;;;;;;;1.70;1.40;;;16.90;58.60;;;;;;10441259;28;20201;-71
2021/12/28 08:54:27;;;;;;;2.53;2.00;;;16.90;58.60;;;;;;10440811;28;20224;-72
2021/12/28 08:59:49;;;;;;;1.93;1.63;;;16.90;58.60;;;;;;10441128;28;20208;-70
2021/12/28 09:05:12;;;;;;;1.63;1.53;;;16.90;58.60;;;;;;10442025;28;20577;-70
2021/12/28 09:10:35;;;;;;;9.07;1.77;;;16.90;58.60;;;;;;10440181;28;20197;-70
2021/12/28 09:15:57;;;;;;;2.57;1.93;;;16.90;58.70;;;;;;10441753;28;20197;-72
2021/12/28 09:21:20;;;;;;;1.47;1.37;;;16.90;58.70;;;;;;10441145;28;20217;-72
2021/12/28 09:26:43;;;;;;;2.03;1.77;;;17.00;58.70;;;;;;10438819;28;20711;-72
2021/12/28 09:32:07;;;;;;;1.93;1.67;;;17.00;58.60;;;;;;10439761;28;20876;-70
2021/12/28 09:37:32;;;;;;;1.63;1.50;;;17.00;58.40;;;;;;10432415;28;20707;-70
2021/12/28 09:42:55;;;;;;;2.03;1.33;;;16.90;58.40;;;;;;10433894;28;20239;-70
2021/12/28 09:48:17;;;;;;;3.03;1.63;;;16.90;58.50;;;;;;10438269;28;20836;-71
2021/12/28 09:53:41;;;;;;;2.07;1.60;;;16.80;58.60;;;;;;10445999;28;20225;-69
2021/12/28 09:59:04;;;;;;;2.33;1.77;;;16.90;58.70;;;;;;10437592;28;20224;-70
2021/12/28 10:04:27;;;;;;;2.33;1.60;;;16.80;58.80;;;;;;10443541;28;20703;-69
2021/12/28 10:09:50;;;;;;;3.50;1.53;;;16.80;58.80;;;;;;10457134;28;20643;-70
2021/12/28 10:15:16;;;;;;;1.37;1.23;;;16.80;58.80;;;;;;10454890;28;20217;-70
2021/12/28 10:20:42;;;;;;;1.77;1.40;;;16.80;59.00;;;;;;10450469;28;20695;-72
2021/12/28 10:26:07;;;;;;;1.63;1.53;;;16.80;58.90;;;;;;10450486;28;20220;-73
2021/12/28 10:31:29;;;;;;;2.07;1.30;;;16.90;59.00;;;;;;10447753;28;20303;-71
2021/12/28 10:36:52;;;;;;;2.53;1.60;;;17.00;59.00;;;;;;10445504;28;20212;-71
2021/12/28 10:42:52;;;;;;;1.90;1.63;;;17.00;58.90;;;;;;10448200;28;20239;-69
2021/12/28 10:48:18;;;;;;;1.63;1.50;;;17.10;58.80;;;;;;10442529;28;20197;-68
2021/12/28 10:53:54;;;;;;;2.37;2.00;;;17.10;58.90;;;;;;10448660;28;20691;-68
2021/12/28 10:59:23;;;;;;;1.63;1.47;;;17.10;58.80;;;;;;10448734;28;20224;-68
2021/12/28 11:04:46;;;;;;;1.73;1.40;;;17.10;58.80;;;;;;10446438;28;20224;-69
2021/12/28 11:10:09;;;;;;;1.87;1.40;;;17.10;58.90;;;;;;10448399;28;20189;-68
2021/12/28 11:15:37;;;;;;;1.93;1.60;;;17.00;58.80;;;;;;10447758;28;20595;-68
2021/12/28 11:21:09;;;;;;;1.57;1.33;;;17.00;58.80;;;;;;10443284;28;20201;-68
2021/12/28 11:26:33;;;;;;;1.60;1.50;;;17.10;58.80;;;;;;10446235;28;20967;-68
2021/12/28 11:31:58;;;;;;;1.53;1.43;;;17.00;58.80;;;;;;10447639;28;20236;-69
2021/12/28 11:37:26;;;;;;;1.70;1.20;;;17.10;58.80;;;;;;10447036;28;20616;-68
2021/12/28 11:42:49;;;;;;;1.93;1.67;;;17.10;58.80;;;;;;10456421;28;20228;-69
2021/12/28 11:48:12;;;;;;;1.93;1.20;;;17.10;58.80;;;;;;10463601;28;20691;-69
2021/12/28 11:53:40;;;;;;;1.37;1.27;;;17.10;58.70;;;;;;10462150;28;20221;-69
2021/12/28 11:59:09;;;;;;;1.53;1.30;;;17.10;58.70;;;;;;10450486;28;20197;-68
2021/12/28 12:04:58;;;;;;;3.53;1.60;;;17.10;58.70;;;;;;10466992;28;20220;-69
2021/12/28 12:10:31;;;;;;;1.80;1.20;;;17.10;58.50;;;;;;10464825;28;20192;-69
2021/12/28 12:15:56;;;;;;;1.37;1.27;;;17.10;58.60;;;;;;10465071;28;20200;-69
2021/12/28 12:21:20;;;;;;;2.43;1.53;;;17.10;58.70;;;;;;10476657;28;20220;-69
2021/12/28 12:26:44;;;;;;;1.57;1.30;;;17.10;58.60;;;;;;10435103;28;20591;-69
2021/12/28 12:32:06;;;;;;;1.97;1.60;;;17.10;58.60;;;;;;10448009;28;20683;-69
2021/12/28 12:37:41;;;;;;;3.27;1.43;;;17.10;58.60;;;;;;10468855;28;20196;-68
2021/12/28 12:43:12;;;;;;;2.27;1.40;;;17.10;58.60;;;;;;10443942;28;20205;-69
2021/12/28 12:49:01;;;;;;;1.40;1.00;;;17.10;58.70;;;;;;10439886;28;20288;-68
2021/12/28 12:54:30;;;;;;;1.60;1.20;;;17.10;58.50;;;;;;10454871;22;20232;-66
2021/12/28 12:59:58;;;;;;;1.60;1.30;;;17.10;58.70;;;;;;10417611;28;20701;-66
2021/12/28 13:05:22;;;;;;;1.30;1.00;;;17.10;58.60;;;;;;10408158;28;20215;-65
2021/12/28 13:10:44;;;;;;;1.80;1.40;;;17.10;58.60;;;;;;10415657;28;20327;-64
2021/12/28 13:16:12;;;;;;;1.30;1.13;;;17.10;58.60;;;;;;10399031;28;20197;-66
2021/12/28 13:21:34;;;;;;;1.43;1.13;;;17.10;58.60;;;;;;10403734;28;20240;-65
2021/12/28 13:26:59;;;;;;;1.87;1.20;;;17.10;58.70;;;;;;10396819;28;20221;-63
2021/12/28 13:32:29;;;;;;;1.43;1.10;;;17.10;58.70;;;;;;10387244;28;20584;-66
2021/12/28 13:38:01;;;;;;;1.53;1.30;;;17.10;58.60;;;;;;10382663;28;20214;-65
2021/12/28 13:43:35;;;;;;;1.70;1.30;;;17.10;58.60;;;;;;10388370;28;21818;-66
2021/12/28 13:49:00;;;;;;;1.97;1.10;;;17.10;58.70;;;;;;10398946;28;20217;-65
2021/12/28 13:54:23;;;;;;;1.17;1.03;;;17.10;58.70;;;;;;10397775;28;20277;-66
2021/12/28 13:59:55;;;;;;;2.03;1.10;;;17.10;58.90;;;;;;10400579;28;20291;-66
2021/12/28 14:05:18;;;;;;;2.23;1.43;;;17.10;58.90;;;;;;10407825;28;20717;-64
2021/12/28 14:10:41;;;;;;;1.43;1.27;;;17.10;59.00;;;;;;10454410;28;20213;-63
2021/12/28 14:16:06;;;;;;;1.57;1.20;;;17.10;59.70;;;;;;10417942;28;20193;-65
2021/12/28 14:21:31;;;;;;;1.70;1.20;;;17.10;59.10;;;;;;10454000;28;20213;-63
2021/12/28 14:26:53;;;;;;;1.90;1.20;;;17.10;59.10;;;;;;10411782;28;20224;-65
2021/12/28 14:32:15;;;;;;;1.57;1.20;;;17.10;59.20;;;;;;10413054;28;20540;-66
2021/12/28 14:37:40;;;;;;;2.20;1.20;;;17.10;59.30;;;;;;10405401;28;20222;-66
2021/12/28 14:43:09;;;;;;;1.73;1.37;;;17.10;59.30;;;;;;10398420;28;20201;-65
2021/12/28 14:48:32;;;;;;;2.13;1.33;;;17.10;59.40;;;;;;10411748;28;20712;-65
2021/12/28 14:54:12;;;;;;;1.83;1.47;;;17.10;59.40;;;;;;10412120;28;20186;-65
2021/12/28 14:59:37;;;;;;;2.00;1.20;;;17.20;59.40;;;;;;10403840;28;20222;-66
2021/12/28 15:05:01;;;;;;;1.60;1.20;;;17.10;59.40;;;;;;10399438;28;20270;-65
2021/12/28 15:10:25;;;;;;;2.90;1.50;;;17.10;59.40;;;;;;10397740;28;20225;-65
2021/12/28 15:15:48;;;;;;;2.03;1.40;;;17.10;59.50;;;;;;10398339;28;20795;-66
2021/12/28 15:21:11;;;;;;;2.17;1.37;;;17.20;59.10;;;;;;10398073;28;20233;-65
2021/12/28 15:26:34;;;;;;;1.60;1.30;;;17.20;59.10;;;;;;10452208;28;20266;-65
2021/12/28 15:31:57;;;;;;;1.80;1.50;;;17.10;59.40;;;;;;10449993;28;20428;-65
2021/12/28 15:37:19;;;;;;;2.07;1.30;;;17.50;58.40;;;;;;10452073;28;20209;-65
2021/12/28 15:42:43;;;;;;;2.20;1.20;;;17.20;59.20;;;;;;10421362;28;20555;-65
2021/12/28 15:48:05;;;;;;;1.90;1.33;;;17.10;59.70;;;;;;10413987;28;20575;-66
2021/12/28 15:53:27;;;;;;;1.50;1.37;;;17.10;59.90;;;;;;10431090;28;20571;-65
2021/12/28 15:58:51;;;;;;;1.13;1.03;;;17.10;60.20;;;;;;10387832;28;20218;-65
2021/12/28 16:04:13;;;;;;;1.90;1.37;;;17.10;60.20;;;;;;10414618;28;20216;-65
2021/12/28 16:09:36;;;;;;;2.37;1.17;;;17.00;60.30;;;;;;10451024;28;20224;-65
2021/12/28 16:14:59;;;;;;;1.90;1.40;;;17.10;60.30;;;;;;10415439;28;20185;-66
2021/12/28 16:20:21;;;;;;;1.70;1.40;;;17.00;60.30;;;;;;10404464;28;20213;-65
2021/12/28 16:25:43;;;;;;;1.13;1.03;;;17.00;60.30;;;;;;10409283;28;20214;-66
2021/12/28 16:31:07;;;;;;;2.60;1.40;;;17.00;60.40;;;;;;10408397;28;20222;-66
2021/12/28 16:36:29;;;;;;;1.10;1.00;;;17.00;60.30;;;;;;10409157;28;20190;-65
2021/12/28 16:41:52;;;;;;;1.67;1.30;;;17.00;60.30;;;;;;10410859;28;20248;-65
2021/12/28 16:47:17;;;;;;;1.70;1.20;;;17.10;60.40;;;;;;10412962;28;20213;-65
2021/12/28 16:52:39;;;;;;;1.40;1.30;;;17.10;60.40;;;;;;10391300;28;20198;-66
2021/12/28 16:58:01;;;;;;;2.57;1.37;;;17.10;60.40;;;;;;10401869;28;20225;-66
2021/12/28 17:03:25;;;;;;;2.00;1.40;;;17.10;60.30;;;;;;10407327;28;20198;-65
2021/12/28 17:08:48;;;;;;;1.50;1.30;;;17.20;60.20;;;;;;10404510;28;20719;-64
2021/12/28 17:14:10;;;;;;;2.57;1.30;;;17.20;60.10;;;;;;10393863;28;20544;-70
2021/12/28 17:19:34;;;;;;;1.70;1.20;;;17.20;60.20;;;;;;10419171;28;20228;-64
2021/12/28 17:24:56;;;;;;;3.63;1.70;;;17.20;60.30;;;;;;10419654;28;20552;-63
2021/12/28 17:30:18;;;;;;;3.73;1.57;;;17.20;60.40;;;;;;10422653;28;20578;-64
2021/12/28 17:35:42;;;;;;;3.27;1.27;;;17.10;60.40;;;;;;10422431;28;20194;-63
2021/12/28 17:41:05;;;;;;;1.87;1.30;;;17.10;60.40;;;;;;10416832;28;20217;-63
2021/12/28 17:46:27;;;;;;;1.80;1.40;;;17.10;60.40;;;;;;10418666;28;20575;-64
2021/12/28 17:51:51;;;;;;;1.97;1.30;;;17.10;60.50;;;;;;10421545;28;20428;-64
2021/12/28 17:57:13;;;;;;;1.67;1.33;;;17.10;60.40;;;;;;10421186;28;20683;-65
2021/12/28 18:02:35;;;;;;;1.30;0.90;;;17.10;60.40;;;;;;10420534;28;20194;-64
2021/12/28 18:07:59;;;;;;;1.53;1.20;;;17.10;60.40;;;;;;10420301;28;20217;-65
2021/12/28 18:13:21;;;;;;;1.20;1.03;;;17.10;60.50;;;;;;10418853;28;20232;-64
2021/12/28 18:18:44;;;;;;;4.70;1.60;;;17.10;60.50;;;;;;10419140;28;20208;-65
2021/12/28 18:24:08;;;;;;;1.20;1.10;;;17.10;60.40;;;;;;10418112;28;20217;-69
2021/12/28 18:29:33;;;;;;;1.47;1.17;;;17.10;60.40;;;;;;10410891;28;20562;-64
2021/12/28 18:34:55;;;;;;;2.03;1.20;;;17.10;60.30;;;;;;10411809;28;20194;-63
2021/12/28 18:40:19;;;;;;;1.43;1.10;;;17.10;60.40;;;;;;10408471;28;20218;-64
2021/12/28 18:45:43;;;;;;;1.73;1.37;;;17.20;60.40;;;;;;10395687;28;20228;-65
2021/12/28 18:51:05;;;;;;;1.67;1.07;;;17.20;60.50;;;;;;10395884;28;20217;-62
2021/12/28 18:56:32;;;;;;;2.70;1.10;;;17.10;60.40;;;;;;10409972;22;20233;-66
2021/12/28 19:01:58;;;;;;;1.20;1.10;;;17.20;60.40;;;;;;10391962;28;20194;-66
2021/12/28 19:07:21;;;;;;;1.20;1.10;;;17.20;60.40;;;;;;10404674;28;20217;-66
2021/12/28 19:12:44;;;;;;;1.73;1.10;;;17.20;60.30;;;;;;10398412;28;20193;-67
2021/12/28 19:18:06;;;;;;;1.60;1.03;;;17.20;60.30;;;;;;10404873;28;20291;-66
2021/12/28 19:23:30;;;;;;;1.70;1.30;;;17.20;60.30;;;;;;10404222;28;20201;-66
2021/12/28 19:28:54;;;;;;;1.93;1.03;;;17.20;60.30;;;;;;10403911;28;20284;-67
2021/12/28 19:34:16;;;;;;;1.43;1.17;;;17.20;60.40;;;;;;10403676;28;20229;-66
2021/12/28 19:39:38;;;;;;;2.87;1.37;;;17.20;60.40;;;;;;10402478;28;20229;-66
2021/12/28 19:45:03;;;;;;;1.70;1.20;;;17.20;60.30;;;;;;10401511;28;20576;-66
2021/12/28 19:50:26;;;;;;;1.20;1.10;;;17.20;60.30;;;;;;10401240;28;20206;-66
2021/12/28 19:55:48;;;;;;;1.23;1.10;;;17.20;60.30;;;;;;10402845;28;20225;-66
2021/12/28 20:01:12;;;;;;;1.40;1.27;;;17.20;60.40;;;;;;10404024;28;20208;-66
2021/12/28 20:06:36;;;;;;;1.67;1.13;;;17.20;60.30;;;;;;10402462;28;20222;-66
2021/12/28 20:11:58;;;;;;;2.50;1.47;;;17.20;60.50;;;;;;10395517;28;20289;-66
2021/12/28 20:17:22;;;;;;;1.77;1.40;;;17.20;60.30;;;;;;10402142;28;20237;-66
2021/12/28 20:22:45;;;;;;;2.07;1.50;;;17.20;60.30;;;;;;10401091;28;20213;-66
2021/12/28 20:28:10;;;;;;;1.50;1.30;;;17.20;60.30;;;;;;10399094;28;20879;-66
2021/12/28 20:33:33;;;;;;;1.40;1.30;;;17.20;60.40;;;;;;10386259;28;20197;-66
2021/12/28 20:38:55;;;;;;;1.87;1.60;;;17.20;60.40;;;;;;10406385;28;20224;-66
2021/12/28 20:44:21;;;;;;;2.20;1.20;;;17.20;60.40;;;;;;10410347;28;20224;-67
2021/12/28 20:49:48;;;;;;;3.13;1.47;;;17.20;60.30;;;;;;10370425;28;20198;-67
2021/12/28 20:55:11;;;;;;;2.03;1.43;;;17.20;60.30;;;;;;10370061;28;20210;-67
2021/12/28 21:00:35;;;;;;;1.70;1.47;;;17.20;60.40;;;;;;10369659;28;20666;-67
2021/12/28 21:05:58;;;;;;;2.27;1.57;;;17.20;60.40;;;;;;10375596;28;20310;-67
2021/12/28 21:11:21;;;;;;;2.57;1.50;;;17.20;60.40;;;;;;10402320;28;20673;-67
2021/12/28 21:16:43;;;;;;;1.83;1.60;;;17.20;60.90;;;;;;10410277;28;20213;-67
2021/12/28 21:22:07;;;;;;;1.40;1.30;;;17.20;60.30;;;;;;10410151;28;20216;-67
2021/12/28 21:27:30;;;;;;;2.60;1.40;;;17.10;60.30;;;;;;10409655;28;20616;-67
2021/12/28 21:32:54;;;;;;;2.30;1.63;;;17.20;60.30;;;;;;10410125;28;20623;-66
2021/12/28 21:38:20;;;;;;;2.40;1.50;;;17.20;60.40;;;;;;10405662;28;20210;-66
2021/12/28 21:43:43;;;;;;;1.50;1.40;;;17.20;60.30;;;;;;10402531;28;20198;-66
2021/12/28 21:49:05;;;;;;;1.90;1.37;;;17.20;60.40;;;;;;10408932;28;20221;-66
2021/12/28 21:54:28;;;;;;;2.37;1.33;;;17.20;60.40;;;;;;10408855;28;20230;-66
2021/12/28 21:59:50;;;;;;;2.07;1.53;;;17.10;60.30;;;;;;10411445;28;20205;-66
2021/12/28 22:05:14;;;;;;;1.67;1.40;;;17.10;60.30;;;;;;10417276;28;20217;-66
2021/12/28 22:10:37;;;;;;;1.97;1.30;;;17.10;60.40;;;;;;10416989;28;20581;-66
2021/12/28 22:15:59;;;;;;;2.40;1.43;;;17.10;60.40;;;;;;10416764;28;20214;-66
2021/12/28 22:21:22;;;;;;;1.73;1.47;;;17.10;60.40;;;;;;10415791;28;20190;-67
2021/12/28 22:26:46;;;;;;;1.97;1.40;;;17.10;60.40;;;;;;10416419;28;20260;-67
2021/12/28 22:32:10;;;;;;;2.53;1.50;;;17.10;60.40;;;;;;10415507;28;20681;-67
2021/12/28 22:37:34;;;;;;;2.77;1.43;;;17.10;60.40;;;;;;10415726;28;20209;-66
2021/12/28 22:42:58;;;;;;;2.37;1.53;;;17.10;60.40;;;;;;10409714;28;20202;-66
2021/12/28 22:48:20;;;;;;;2.13;1.40;;;17.10;60.40;;;;;;10414769;28;20222;-66
2021/12/28 22:53:42;;;;;;;2.40;1.20;;;17.10;60.50;;;;;;10415157;28;20194;-66
2021/12/28 22:59:06;;;;;;;1.77;1.50;;;17.10;60.60;;;;;;10414260;28;20190;-67
2021/12/28 23:04:28;;;;;;;1.73;1.30;;;17.10;60.50;;;;;;10415116;28;20759;-66
2021/12/28 23:09:50;;;;;;;2.33;1.67;;;17.00;60.40;;;;;;10414345;28;20194;-66
2021/12/28 23:15:14;;;;;;;2.00;1.37;;;17.00;60.40;;;;;;10413196;28;20218;-66
2021/12/28 23:20:38;;;;;;;1.90;1.40;;;17.00;60.50;;;;;;10407537;28;20210;-66
2021/12/28 23:26:01;;;;;;;2.43;1.40;;;17.00;60.50;;;;;;10413953;28;20257;-66
2021/12/28 23:31:28;;;;;;;1.87;1.10;;;17.00;60.50;;;;;;10413711;28;20693;-66
2021/12/28 23:36:51;;;;;;;3.20;1.20;;;17.10;60.50;;;;;;10413261;28;20210;-66
2021/12/28 23:42:13;;;;;;;2.23;1.10;;;17.00;61.10;;;;;;10412700;28;20221;-66
2021/12/28 23:47:37;;;;;;;1.53;1.20;;;17.10;60.50;;;;;;10412760;28;20221;-66
2021/12/28 23:52:59;;;;;;;1.80;1.30;;;17.00;60.50;;;;;;10411789;28;20220;-66
2021/12/28 23:58:21;;;;;;;2.63;1.40;;;17.00;60.50;;;;;;10412122;28;20221;-66
